Time;durP1;ratioP1;P1;durP2;ratioP2;P2;SDS_P1;SDS_P2;PMS_P1;PMS_P2;Temp;Humidity;BMP_temperature;BMP_pressure;BME280_temperature;BME280_humidity;BME280_pressure;Samples;Min_cycle;Max_cycle;Signal;HPM_P1;HPM_P2
2021/04/20 00:01:09;;;;;;;15.10;12.07;;;7.30;96.80;;;;;;5064332;28;20229;-91
2021/04/20 00:03:35;;;;;;;16.90;12.63;;;7.30;96.50;;;;;;5066463;28;20206;-86
2021/04/20 00:06:03;;;;;;;16.73;12.27;;;7.30;96.50;;;;;;5065609;28;20230;-86
2021/04/20 00:08:29;;;;;;;15.53;12.40;;;7.30;96.80;;;;;;5069867;28;20206;-88
2021/04/20 00:10:56;;;;;;;15.73;11.53;;;7.30;96.80;;;;;;5069350;28;20232;-91
2021/04/20 00:13:23;;;;;;;14.57;12.37;;;7.20;97.00;;;;;;5076584;28;20227;-86
2021/04/20 00:15:49;;;;;;;16.00;12.10;;;7.20;97.00;;;;;;5074801;28;20233;-86
2021/04/20 00:18:15;;;;;;;15.10;12.30;;;7.30;96.90;;;;;;5073928;28;20204;-88
2021/04/20 00:20:42;;;;;;;15.17;12.50;;;7.30;96.80;;;;;;5073225;28;20266;-87
2021/04/20 00:23:09;;;;;;;16.60;12.37;;;7.30;96.80;;;;;;5070616;28;20209;-86
2021/04/20 00:25:36;;;;;;;16.20;12.70;;;7.30;96.60;;;;;;5061300;28;20669;-86
2021/04/20 00:28:04;;;;;;;15.00;12.20;;;7.20;96.80;;;;;;5066111;28;20198;-86
2021/04/20 00:30:30;;;;;;;16.83;13.03;;;7.30;96.80;;;;;;5063327;28;20653;-86
2021/04/20 00:32:57;;;;;;;16.00;12.33;;;7.30;96.70;;;;;;5066583;28;20718;-86
2021/04/20 00:35:23;;;;;;;16.30;12.93;;;7.30;96.80;;;;;;5070388;28;20193;-87
2021/04/20 00:37:50;;;;;;;16.47;12.47;;;7.30;96.50;;;;;;5065578;28;20210;-86
2021/04/20 00:40:18;;;;;;;17.70;13.60;;;7.30;96.60;;;;;;5066821;28;20205;-88
2021/04/20 00:42:49;;;;;;;15.40;12.50;;;7.30;96.70;;;;;;5072456;28;20235;-87
2021/04/20 00:45:18;;;;;;;16.07;12.73;;;7.30;96.70;;;;;;5071257;28;20215;-86
2021/04/20 00:47:45;;;;;;;16.87;12.93;;;7.30;96.90;;;;;;5067550;28;20232;-87
2021/04/20 00:50:13;;;;;;;17.17;13.70;;;7.30;96.90;;;;;;5063123;28;20202;-87
2021/04/20 00:52:40;;;;;;;17.27;13.47;;;7.20;96.90;;;;;;5069167;28;20236;-86
2021/04/20 00:55:07;;;;;;;17.17;13.57;;;7.20;96.90;;;;;;5062267;28;20579;-86
2021/04/20 00:57:33;;;;;;;17.63;13.67;;;7.20;97.20;;;;;;5067924;28;20232;-86
2021/04/20 01:00:00;;;;;;;17.10;13.37;;;7.20;97.10;;;;;;5069704;28;20215;-88
2021/04/20 01:02:28;;;;;;;17.27;14.13;;;7.20;97.20;;;;;;5062916;28;20221;-85
2021/04/20 01:04:54;;;;;;;18.70;13.20;;;7.30;97.00;;;;;;5064893;28;20197;-86
2021/04/20 01:07:21;;;;;;;18.70;14.83;;;7.30;96.90;;;;;;5044696;28;20252;-86
2021/04/20 01:09:49;;;;;;;18.53;14.87;;;7.20;97.20;;;;;;5066092;28;20571;-86
2021/04/20 01:12:16;;;;;;;20.33;15.20;;;7.30;97.40;;;;;;5069190;28;20240;-87
2021/04/20 01:14:43;;;;;;;19.47;15.47;;;7.10;97.30;;;;;;5071031;28;20205;-86
2021/04/20 01:17:10;;;;;;;19.30;15.93;;;7.00;97.60;;;;;;5066582;28;20228;-93
2021/04/20 01:19:39;;;;;;;21.57;16.10;;;7.00;97.70;;;;;;5068334;28;20205;-88
2021/04/20 01:22:07;;;;;;;22.57;16.17;;;7.10;98.10;;;;;;5070776;28;20631;-89
2021/04/20 01:24:35;;;;;;;20.77;16.43;;;7.10;98.10;;;;;;5065886;28;20551;-86
2021/04/20 01:27:02;;;;;;;20.30;15.80;;;7.20;97.80;;;;;;5067413;28;21474;-86
2021/04/20 01:29:28;;;;;;;21.30;16.33;;;7.30;97.60;;;;;;5067310;28;20209;-90
2021/04/20 01:31:55;;;;;;;19.83;16.17;;;7.40;97.30;;;;;;5065205;28;20226;-86
2021/04/20 01:34:21;;;;;;;19.30;15.47;;;7.40;97.30;;;;;;5068111;28;20201;-87
2021/04/20 01:36:50;;;;;;;19.07;15.93;;;7.40;97.10;;;;;;5069859;28;20221;-90
2021/04/20 01:39:16;;;;;;;20.97;16.50;;;7.40;96.80;;;;;;5073813;28;20193;-88
2021/04/20 01:41:44;;;;;;;21.93;16.33;;;7.30;97.20;;;;;;5061802;28;20244;-87
2021/04/20 01:44:10;;;;;;;20.07;16.77;;;7.30;97.20;;;;;;5068414;28;20223;-91
2021/04/20 01:46:37;;;;;;;21.13;16.97;;;7.30;97.50;;;;;;5068507;28;20233;-88
2021/04/20 01:49:04;;;;;;;23.27;18.23;;;7.30;97.40;;;;;;5070671;28;20245;-89
2021/04/20 01:51:31;;;;;;;20.73;17.17;;;7.30;97.40;;;;;;5072302;28;20229;-86
2021/04/20 01:53:57;;;;;;;23.07;17.60;;;7.30;97.40;;;;;;5068487;28;20223;-88
2021/04/20 01:56:27;;;;;;;22.60;17.93;;;7.40;97.50;;;;;;5068912;28;20225;-87
2021/04/20 01:58:54;;;;;;;22.77;17.83;;;7.40;97.10;;;;;;5066196;28;20205;-86
2021/04/20 02:01:24;;;;;;;22.37;17.43;;;7.50;96.50;;;;;;5072354;28;20232;-87
2021/04/20 02:03:52;;;;;;;22.50;17.70;;;7.40;96.80;;;;;;5073891;28;20682;-86
2021/04/20 02:06:20;;;;;;;23.10;17.90;;;7.40;96.70;;;;;;5075451;28;20220;-86
2021/04/20 02:08:48;;;;;;;23.00;18.67;;;7.40;96.70;;;;;;5077602;28;20209;-87
2021/04/20 02:11:17;;;;;;;21.87;17.67;;;7.40;96.80;;;;;;5069816;28;20765;-91
2021/04/20 02:13:44;;;;;;;21.40;18.07;;;7.40;97.00;;;;;;5075114;28;20217;-86
2021/04/20 02:16:13;;;;;;;22.87;17.70;;;7.40;96.80;;;;;;5074607;28;20446;-90
2021/04/20 02:18:42;;;;;;;23.37;18.73;;;7.50;96.80;;;;;;5073866;28;20300;-87
2021/04/20 02:21:09;;;;;;;23.40;18.87;;;7.40;96.80;;;;;;5072186;28;20225;-86
2021/04/20 02:23:37;;;;;;;25.03;18.53;;;7.40;96.80;;;;;;5069882;28;20232;-86
2021/04/20 02:26:09;;;;;;;22.43;18.50;;;7.40;97.10;;;;;;5071435;28;20346;-88
2021/04/20 02:28:38;;;;;;;22.37;17.87;;;7.40;96.70;;;;;;5079748;28;20662;-86
2021/04/20 02:31:07;;;;;;;22.70;18.67;;;7.50;96.70;;;;;;5070671;28;20241;-87
2021/04/20 02:33:36;;;;;;;23.30;18.30;;;7.50;96.60;;;;;;5072784;28;20683;-87
2021/04/20 02:36:06;;;;;;;25.27;18.57;;;7.60;96.70;;;;;;5071327;28;20247;-85
2021/04/20 02:38:35;;;;;;;23.23;18.80;;;7.60;96.10;;;;;;5076508;28;20213;-86
2021/04/20 02:41:04;;;;;;;24.77;18.50;;;7.50;96.30;;;;;;5075569;28;20225;-87
2021/04/20 02:43:33;;;;;;;25.23;19.37;;;7.50;96.50;;;;;;5078289;28;20550;-87
2021/04/20 02:46:02;;;;;;;23.87;19.00;;;7.50;96.10;;;;;;5069983;28;20231;-89
2021/04/20 02:48:31;;;;;;;27.47;20.67;;;7.40;96.60;;;;;;5069801;28;20236;-88
2021/04/20 02:51:00;;;;;;;24.63;19.60;;;7.40;96.90;;;;;;5077923;28;20255;-86
2021/04/20 02:53:27;;;;;;;25.20;20.10;;;7.40;96.80;;;;;;5076973;28;20704;-86
2021/04/20 02:55:56;;;;;;;24.87;19.73;;;7.30;97.20;;;;;;5065613;28;20255;-89
2021/04/20 02:58:27;;;;;;;22.30;18.87;;;7.40;96.90;;;;;;5068608;28;20619;-86
2021/04/20 03:00:59;;;;;;;26.80;20.67;;;7.40;97.10;;;;;;5074349;28;20229;-89
2021/04/20 03:03:26;;;;;;;25.20;19.63;;;7.50;96.90;;;;;;5066768;28;20210;-86
2021/04/20 03:05:53;;;;;;;25.30;19.77;;;7.50;96.70;;;;;;5074757;28;20235;-88
2021/04/20 03:08:21;;;;;;;24.50;19.87;;;7.40;96.40;;;;;;5068840;28;20197;-87
2021/04/20 03:10:48;;;;;;;27.00;20.67;;;7.40;96.90;;;;;;5075941;28;20232;-86
2021/04/20 03:13:17;;;;;;;26.00;20.63;;;7.30;96.80;;;;;;5067799;28;20275;-88
2021/04/20 03:15:45;;;;;;;27.23;20.77;;;7.30;97.20;;;;;;5074712;28;20225;-86
2021/04/20 03:18:12;;;;;;;26.07;20.70;;;7.20;97.60;;;;;;5053115;28;20258;-88
2021/04/20 03:20:39;;;;;;;26.97;21.50;;;7.20;97.80;;;;;;5068407;28;20219;-86
2021/04/20 03:23:05;;;;;;;27.33;21.60;;;7.20;97.50;;;;;;5080378;28;20609;-87
2021/04/20 03:25:41;;;;;;;26.00;21.63;;;7.20;97.50;;;;;;5066356;28;20215;-87
2021/04/20 03:28:09;;;;;;;26.67;21.17;;;7.20;98.00;;;;;;5075912;28;20197;-88
2021/04/20 03:30:36;;;;;;;27.00;20.93;;;7.20;97.90;;;;;;5078280;28;20220;-87
2021/04/20 03:36:02;;;;;;;26.70;21.47;;;7.30;97.50;;;;;;5064294;28;20598;-86
2021/04/20 03:38:34;;;;;;;25.53;20.30;;;7.20;97.90;;;;;;5068105;28;20202;-86
2021/04/20 03:41:07;;;;;;;27.00;22.00;;;7.20;98.00;;;;;;5074703;28;20221;-86
2021/04/20 03:43:34;;;;;;;27.90;20.93;;;7.20;98.10;;;;;;5076380;28;20205;-88
2021/04/20 03:46:06;;;;;;;27.87;21.93;;;7.20;98.10;;;;;;5070616;28;20245;-86
2021/04/20 03:48:37;;;;;;;28.37;21.87;;;7.20;98.00;;;;;;5069955;28;20208;-88
2021/04/20 03:51:09;;;;;;;26.90;21.37;;;7.30;98.00;;;;;;5066727;28;20229;-87
2021/04/20 03:53:38;;;;;;;26.33;21.07;;;7.40;97.60;;;;;;5071540;28;20310;-89
2021/04/20 03:56:08;;;;;;;27.93;21.37;;;7.50;97.20;;;;;;5070584;28;20232;-87
2021/04/20 03:58:37;;;;;;;28.13;21.67;;;7.40;97.20;;;;;;5060505;28;20190;-86
2021/04/20 04:01:07;;;;;;;28.80;22.23;;;7.30;97.60;;;;;;5074378;28;20297;-86
2021/04/20 04:03:36;;;;;;;29.60;22.30;;;7.30;97.80;;;;;;5067000;28;20201;-87
2021/04/20 04:06:05;;;;;;;31.73;22.77;;;7.20;97.90;;;;;;5077925;28;20221;-91
2021/04/20 04:08:36;;;;;;;27.53;20.93;;;7.20;97.90;;;;;;5074407;28;20233;-89
2021/04/20 04:11:04;;;;;;;26.47;21.23;;;7.20;98.00;;;;;;5067774;28;20236;-87
2021/04/20 04:13:32;;;;;;;28.37;21.97;;;7.20;97.80;;;;;;5073851;28;20225;-86
2021/04/20 04:16:01;;;;;;;29.50;22.67;;;7.20;97.90;;;;;;5076566;28;20250;-88
2021/04/20 04:18:30;;;;;;;27.93;22.27;;;7.20;97.70;;;;;;5074937;28;20205;-86
2021/04/20 04:20:58;;;;;;;28.27;22.00;;;7.20;97.60;;;;;;5064100;28;20228;-87
2021/04/20 04:23:28;;;;;;;29.33;22.87;;;7.30;97.80;;;;;;5069070;28;20197;-87
2021/04/20 04:26:01;;;;;;;26.40;21.20;;;7.20;97.50;;;;;;5076967;28;20278;-86
2021/04/20 04:28:30;;;;;;;27.80;21.77;;;7.20;97.80;;;;;;5071991;28;20326;-87
2021/04/20 04:30:59;;;;;;;27.77;22.83;;;7.10;97.90;;;;;;5071122;28;20221;-86
2021/04/20 04:33:28;;;;;;;27.67;22.23;;;7.30;98.20;;;;;;5069006;28;20296;-88
2021/04/20 04:35:56;;;;;;;26.77;21.23;;;7.30;97.70;;;;;;5068637;28;20229;-87
2021/04/20 04:38:22;;;;;;;28.70;21.63;;;7.30;97.80;;;;;;5070044;28;20198;-87
2021/04/20 04:40:49;;;;;;;26.30;20.23;;;7.40;97.50;;;;;;5077177;28;20252;-85
2021/04/20 04:43:16;;;;;;;26.40;21.70;;;7.50;97.30;;;;;;5060996;28;20213;-86
2021/04/20 04:45:42;;;;;;;27.30;21.87;;;7.50;96.50;;;;;;5069555;28;20208;-85
2021/04/20 04:48:11;;;;;;;26.00;20.87;;;7.50;97.00;;;;;;5073796;28;20193;-85
2021/04/20 04:50:40;;;;;;;26.23;21.20;;;7.50;97.10;;;;;;5068536;28;20198;-85
2021/04/20 04:53:07;;;;;;;29.17;22.30;;;7.40;96.90;;;;;;5069353;28;20584;-85
2021/04/20 04:55:34;;;;;;;30.00;22.17;;;7.40;97.00;;;;;;5062036;28;20198;-85
2021/04/20 04:58:01;;;;;;;28.93;22.20;;;7.30;97.20;;;;;;5071251;28;20220;-84
2021/04/20 05:00:28;;;;;;;30.20;23.13;;;7.40;97.00;;;;;;5058439;28;20197;-89
2021/04/20 05:02:55;;;;;;;31.50;21.00;;;7.40;97.10;;;;;;5060260;28;20198;-85
2021/04/20 05:05:26;;;;;;;27.90;22.20;;;7.40;97.30;;;;;;5062908;28;20216;-85
2021/04/20 05:07:58;;;;;;;30.40;21.57;;;7.40;97.30;;;;;;5064937;28;20256;-87
2021/04/20 05:10:24;;;;;;;28.17;22.13;;;7.40;97.00;;;;;;5067183;28;20208;-87
2021/04/20 05:12:51;;;;;;;30.43;22.10;;;7.30;97.30;;;;;;5070565;28;20236;-87
2021/04/20 05:15:18;;;;;;;27.87;22.17;;;7.30;97.00;;;;;;5063936;28;20225;-87
2021/04/20 05:17:45;;;;;;;31.50;22.73;;;7.20;96.90;;;;;;5073214;28;20706;-83
2021/04/20 05:20:13;;;;;;;28.53;22.30;;;7.30;97.20;;;;;;5067095;28;20208;-86
2021/04/20 05:22:40;;;;;;;31.63;22.07;;;7.30;97.40;;;;;;5063085;28;20326;-85
2021/04/20 05:25:08;;;;;;;28.87;22.33;;;7.30;97.40;;;;;;5065770;28;20571;-87
2021/04/20 05:27:34;;;;;;;28.23;21.33;;;7.40;97.20;;;;;;5065698;28;20232;-88
2021/04/20 05:30:01;;;;;;;27.50;21.33;;;7.50;97.00;;;;;;5065991;28;20200;-86
2021/04/20 05:32:27;;;;;;;25.33;20.80;;;7.60;96.70;;;;;;5064700;28;20631;-87
2021/04/20 05:34:53;;;;;;;25.77;20.53;;;7.80;96.10;;;;;;5066837;28;20214;-87
2021/04/20 05:37:30;;;;;;;30.47;21.63;;;7.90;95.70;;;;;;5072875;28;20228;-89
2021/04/20 05:40:09;;;;;;;25.33;20.27;;;8.10;95.70;;;;;;5072390;28;20201;-86
2021/04/20 05:42:36;;;;;;;26.73;20.57;;;8.10;95.20;;;;;;5085172;28;20598;-90
2021/04/20 05:45:06;;;;;;;27.40;20.85;;;8.10;95.70;;;;;;5081079;28;20198;-89
2021/04/20 05:47:32;;;;;;;26.35;20.25;;;8.30;95.40;;;;;;5083408;28;20220;-87
2021/04/20 05:50:01;;;;;;;26.83;20.20;;;8.40;94.60;;;;;;5080083;28;20299;-90
2021/04/20 05:52:28;;;;;;;25.77;20.15;;;8.50;93.90;;;;;;5079794;28;20234;-91
2021/04/20 05:55:07;;;;;;;26.20;20.10;;;8.50;93.50;;;;;;5082523;28;20193;-88
2021/04/20 05:57:52;;;;;;;25.58;20.45;;;8.50;93.30;;;;;;5079090;28;20221;-88
2021/04/20 06:00:21;;;;;;;23.98;19.80;;;8.60;93.50;;;;;;5083198;28;20287;-89
2021/04/20 06:02:51;;;;;;;26.03;20.30;;;8.70;93.60;;;;;;5079612;28;20228;-89
2021/04/20 06:05:20;;;;;;;23.80;19.37;;;8.80;93.30;;;;;;5070170;28;20854;-89
2021/04/20 06:07:48;;;;;;;25.02;19.90;;;8.90;92.90;;;;;;5071466;28;20232;-89
2021/04/20 06:13:37;;;;;;;27.67;20.42;;;8.90;92.70;;;;;;5086841;28;20227;-89
2021/04/20 06:16:12;;;;;;;23.43;18.37;;;8.90;92.30;;;;;;5087608;28;20217;-89
2021/04/20 06:18:40;;;;;;;25.42;18.67;;;9.00;92.10;;;;;;5075986;28;20621;-91
2021/04/20 06:21:08;;;;;;;25.55;19.55;;;9.10;92.00;;;;;;5082180;28;20233;-88
2021/04/20 06:23:36;;;;;;;26.05;19.98;;;9.20;91.70;;;;;;5063833;28;20232;-88
2021/04/20 06:26:04;;;;;;;25.85;20.20;;;9.20;91.50;;;;;;5076428;28;20340;-87
2021/04/20 06:28:32;;;;;;;24.23;20.15;;;9.20;91.70;;;;;;5075562;28;20621;-88
2021/04/20 06:31:00;;;;;;;27.23;19.17;;;9.20;91.70;;;;;;5079276;28;20239;-87
2021/04/20 06:33:27;;;;;;;24.17;19.83;;;9.20;91.70;;;;;;5083184;28;20248;-87
2021/04/20 06:35:54;;;;;;;25.20;19.45;;;9.40;91.70;;;;;;5081719;28;20224;-87
2021/04/20 06:38:22;;;;;;;24.90;19.08;;;9.60;91.30;;;;;;5077476;28;20264;-89
2021/04/20 06:40:52;;;;;;;24.73;19.35;;;9.60;90.60;;;;;;5081076;28;20250;-89
2021/04/20 06:43:26;;;;;;;23.35;18.83;;;9.50;90.60;;;;;;5071537;28;20251;-88
2021/04/20 06:45:55;;;;;;;23.80;18.63;;;9.40;90.90;;;;;;5080345;28;20244;-88
2021/04/20 06:48:35;;;;;;;24.88;19.70;;;9.40;91.00;;;;;;5082177;28;20213;-88
2021/04/20 06:51:05;;;;;;;24.10;19.20;;;9.40;90.80;;;;;;5077236;28;20229;-88
2021/04/20 06:53:37;;;;;;;26.42;18.33;;;9.30;91.20;;;;;;5077623;28;20640;-88
2021/04/20 06:56:11;;;;;;;27.77;19.25;;;9.30;90.90;;;;;;5075809;28;20220;-87
2021/04/20 06:58:50;;;;;;;24.58;19.38;;;9.20;90.80;;;;;;5078029;28;20272;-87
2021/04/20 07:01:20;;;;;;;24.30;18.50;;;9.20;90.90;;;;;;5077882;28;20283;-87
2021/04/20 07:04:05;;;;;;;25.23;19.48;;;9.10;91.50;;;;;;5078934;28;20260;-89
2021/04/20 07:06:34;;;;;;;29.35;19.73;;;9.00;91.50;;;;;;5079165;28;20225;-89
2021/04/20 07:09:02;;;;;;;24.98;18.40;;;8.90;91.70;;;;;;5081535;28;20298;-86
2021/04/20 07:11:32;;;;;;;23.05;18.55;;;9.00;91.60;;;;;;5076425;28;20233;-86
2021/04/20 07:14:01;;;;;;;24.15;18.58;;;9.10;90.90;;;;;;5076391;28;20252;-90
2021/04/20 07:16:37;;;;;;;25.40;18.73;;;9.20;91.20;;;;;;5079857;28;20236;-91
2021/04/20 07:22:55;;;;;;;24.55;18.15;;;9.50;90.60;;;;;;5000589;28;20238;-87
2021/04/20 07:28:56;;;;;;;22.75;18.13;;;9.70;90.20;;;;;;5082871;28;20211;-89
2021/04/20 07:31:31;;;;;;;26.05;19.08;;;9.70;90.00;;;;;;5077260;28;20240;-88
2021/04/20 07:34:18;;;;;;;25.48;18.80;;;9.70;90.00;;;;;;5061524;28;20213;-89
2021/04/20 07:37:07;;;;;;;21.98;17.88;;;9.70;90.60;;;;;;5078549;28;20229;-90
2021/04/20 07:40:21;;;;;;;23.77;18.35;;;9.70;90.00;;;;;;5074282;28;20198;-90
2021/04/20 07:46:05;;;;;;;23.20;17.67;;;9.50;90.50;;;;;;5080327;28;20240;-89
2021/04/20 07:48:39;;;;;;;23.75;18.77;;;9.30;90.50;;;;;;5071243;28;20194;-89
2021/04/20 07:51:28;;;;;;;22.33;17.77;;;9.50;90.60;;;;;;5060546;28;20279;-88
2021/04/20 07:54:26;;;;;;;22.42;17.30;;;9.70;90.50;;;;;;5079054;28;20286;-89
2021/04/20 07:57:25;;;;;;;21.88;17.33;;;9.90;88.00;;;;;;5075891;28;20221;-89
2021/04/20 07:59:59;;;;;;;22.95;17.17;;;10.00;86.00;;;;;;5075023;28;20200;-89
2021/04/20 08:02:35;;;;;;;20.58;16.52;;;10.20;85.20;;;;;;5074650;28;20706;-89
2021/04/20 08:05:08;;;;;;;23.33;17.42;;;10.40;84.20;;;;;;5078937;28;20201;-91
2021/04/20 08:07:43;;;;;;;24.52;17.55;;;10.60;83.20;;;;;;5073858;28;20221;-89
2021/04/20 08:13:39;;;;;;;23.27;17.08;;;10.80;82.10;;;;;;5081253;28;20247;-88
2021/04/20 08:26:32;;;;;;;20.75;17.02;;;11.50;76.70;;;;;;5084633;28;20189;-87
2021/04/20 08:32:25;;;;;;;21.35;17.38;;;11.60;75.90;;;;;;5078239;28;20224;-88
2021/04/20 08:35:00;;;;;;;22.90;16.80;;;11.80;75.00;;;;;;5067475;28;20198;-92
2021/04/20 08:40:24;;;;;;;20.40;16.20;;;12.50;74.40;;;;;;5080668;28;20200;-90
2021/04/20 08:43:31;;;;;;;20.15;16.15;;;12.50;68.70;;;;;;5082406;28;20216;-88
2021/04/20 08:46:34;;;;;;;20.83;16.40;;;12.70;68.70;;;;;;5071482;28;20244;-88
2021/04/20 08:55:46;;;;;;;22.67;16.65;;;12.90;66.60;;;;;;5088900;28;20208;-88
2021/04/20 08:58:45;;;;;;;20.85;15.57;;;13.00;66.20;;;;;;5079168;28;20213;-90
2021/04/20 09:04:53;;;;;;;21.10;16.98;;;12.90;66.60;;;;;;5067066;28;20209;-91
2021/04/20 09:10:17;;;;;;;20.10;16.98;;;11.90;69.60;;;;;;5055687;28;20213;-90
2021/04/20 09:12:46;;;;;;;21.00;16.17;;;12.00;75.10;;;;;;5082506;28;20228;-92
2021/04/20 09:15:16;;;;;;;19.60;16.17;;;12.10;75.20;;;;;;5083322;28;20211;-90
2021/04/20 09:17:49;;;;;;;20.75;16.70;;;12.10;73.20;;;;;;5072561;28;20669;-88
2021/04/20 09:20:25;;;;;;;21.77;17.73;;;11.90;72.90;;;;;;5080513;28;20205;-88
2021/04/20 09:22:57;;;;;;;19.55;16.90;;;11.70;75.00;;;;;;5086036;28;20235;-87
2021/04/20 09:25:28;;;;;;;20.05;16.13;;;11.50;74.70;;;;;;5073496;28;20209;-89
2021/04/20 09:28:24;;;;;;;19.30;16.05;;;11.70;78.10;;;;;;5079945;28;20221;-88
2021/04/20 09:30:54;;;;;;;21.48;15.82;;;12.00;75.80;;;;;;5076862;28;20221;-88
2021/04/20 09:33:23;;;;;;;20.30;15.40;;;12.20;75.30;;;;;;5072966;28;20278;-86
2021/04/20 09:35:56;;;;;;;17.80;15.93;;;12.40;75.50;;;;;;5082051;28;20221;-87
2021/04/20 09:38:24;;;;;;;19.05;15.48;;;12.30;76.30;;;;;;5087272;28;20208;-87
2021/04/20 09:44:18;;;;;;;19.10;15.30;;;12.60;69.60;;;;;;5058948;28;20213;-88
2021/04/20 09:47:18;;;;;;;19.30;15.80;;;12.90;71.30;;;;;;5086549;28;20247;-89
2021/04/20 09:53:21;;;;;;;17.52;15.43;;;12.80;70.10;;;;;;5085185;28;20203;-87
2021/04/20 10:05:53;;;;;;;18.90;15.00;;;13.00;70.40;;;;;;5082961;28;20181;-88
2021/04/20 10:12:38;;;;;;;17.98;15.80;;;13.00;67.50;;;;;;5087252;28;20209;-90
2021/04/20 10:15:15;;;;;;;16.77;14.57;;;13.40;66.30;;;;;;5086974;28;20338;-92
2021/04/20 10:17:49;;;;;;;17.55;14.65;;;13.40;67.30;;;;;;5084574;28;20308;-87
2021/04/20 10:20:33;;;;;;;16.67;14.88;;;13.80;64.80;;;;;;5077511;28;20197;-88
2021/04/20 10:29:36;;;;;;;18.85;13.98;;;14.20;61.20;;;;;;5082205;28;20188;-86
2021/04/20 10:32:09;;;;;;;17.30;14.98;;;14.30;58.40;;;;;;5073696;28;20225;-86
2021/04/20 10:34:57;;;;;;;18.05;14.88;;;14.80;59.40;;;;;;5077572;28;20209;-87
2021/04/20 10:37:34;;;;;;;18.15;14.65;;;14.80;53.50;;;;;;5067898;28;20224;-88
2021/04/20 10:40:01;;;;;;;18.00;15.13;;;14.30;54.50;;;;;;5066523;28;20239;-89
2021/04/20 10:42:30;;;;;;;16.55;13.93;;;14.50;57.20;;;;;;5068282;28;20703;-91
2021/04/20 10:45:03;;;;;;;14.50;12.77;;;14.90;53.80;;;;;;5068811;28;20205;-86
2021/04/20 10:47:32;;;;;;;14.70;12.70;;;14.80;51.20;;;;;;5067160;28;20574;-86
2021/04/20 10:50:00;;;;;;;15.10;13.43;;;15.10;51.50;;;;;;5073803;28;20659;-88
2021/04/20 10:55:51;;;;;;;15.85;13.65;;;16.20;51.70;;;;;;5076338;28;20211;-86
2021/04/20 10:58:23;;;;;;;15.00;13.05;;;15.10;51.50;;;;;;5069589;28;20201;-86
2021/04/20 11:00:53;;;;;;;13.55;12.15;;;15.30;50.60;;;;;;5072613;28;20229;-86
2021/04/20 11:03:34;;;;;;;16.63;12.98;;;14.40;50.80;;;;;;5084838;28;20272;-87
2021/04/20 11:09:47;;;;;;;13.85;12.07;;;13.80;55.30;;;;;;5083672;28;20200;-87
2021/04/20 11:12:27;;;;;;;14.27;11.68;;;14.00;52.90;;;;;;5083619;28;20201;-86
2021/04/20 11:15:30;;;;;;;12.95;11.43;;;14.30;53.60;;;;;;5083408;28;20217;-93
2021/04/20 11:21:29;;;;;;;14.00;11.23;;;14.30;52.30;;;;;;5073934;28;20712;-87
2021/04/20 11:24:45;;;;;;;11.88;10.68;;;15.00;51.40;;;;;;5064046;28;20222;-86
2021/04/20 11:30:38;;;;;;;12.98;11.55;;;15.30;49.20;;;;;;5074557;28;20222;-88
2021/04/20 11:33:09;;;;;;;11.75;10.55;;;15.70;49.30;;;;;;5075882;28;20279;-87
2021/04/20 11:35:41;;;;;;;11.85;10.60;;;15.70;50.00;;;;;;5075278;28;20240;-88
2021/04/20 11:38:13;;;;;;;12.52;10.25;;;15.70;48.90;;;;;;5071397;28;20207;-88
2021/04/20 11:40:49;;;;;;;11.52;10.27;;;15.60;47.90;;;;;;5066566;28;20660;-87
2021/04/20 11:43:52;;;;;;;11.63;10.43;;;16.10;50.30;;;;;;5072745;28;20283;-87
2021/04/20 11:46:22;;;;;;;11.50;9.75;;;15.50;46.00;;;;;;5071028;28;20366;-87
2021/04/20 11:48:57;;;;;;;12.13;10.68;;;15.40;48.20;;;;;;5067694;28;20201;-86
2021/04/20 11:58:23;;;;;;;11.02;9.55;;;16.30;46.50;;;;;;5078976;28;20190;-85
2021/04/20 12:00:58;;;;;;;11.70;10.13;;;16.30;44.80;;;;;;5068712;28;20215;-85
2021/04/20 12:03:26;;;;;;;12.93;10.43;;;15.80;44.40;;;;;;5079213;28;20231;-86
2021/04/20 12:19:59;;;;;;;10.98;9.80;;;14.00;50.40;;;;;;5067299;28;20178;-87
2021/04/20 12:22:26;;;;;;;10.77;9.20;;;13.60;52.50;;;;;;5059379;28;20225;-87
2021/04/20 12:24:55;;;;;;;10.52;9.43;;;13.70;51.50;;;;;;5064808;28;20223;-87
2021/04/20 12:46:18;;;;;;;9.50;8.45;;;13.10;55.00;;;;;;6024249;22;20233;-88
2021/04/20 12:59:02;;;;;;;11.00;8.75;;;14.20;50.60;;;;;;5065282;28;20645;-86
2021/04/20 13:01:59;;;;;;;10.32;7.97;;;14.40;50.80;;;;;;5057420;28;20227;-85
2021/04/20 13:04:28;;;;;;;8.80;7.90;;;14.70;47.70;;;;;;5052799;28;20202;-85
2021/04/20 13:07:00;;;;;;;11.70;8.15;;;14.70;47.00;;;;;;5070319;28;20236;-86
2021/04/20 13:12:55;;;;;;;11.18;7.75;;;14.40;46.30;;;;;;5067960;28;20201;-86
2021/04/20 13:22:35;;;;;;;9.38;8.38;;;14.20;48.20;;;;;;5069814;28;20319;-87
2021/04/20 13:25:05;;;;;;;10.00;8.90;;;14.00;50.50;;;;;;5063884;28;20202;-85
2021/04/20 13:27:38;;;;;;;8.85;7.95;;;13.90;51.10;;;;;;5060057;28;20268;-85
2021/04/20 13:30:17;;;;;;;8.63;7.72;;;13.90;50.40;;;;;;5063283;28;20602;-85
2021/04/20 13:50:32;;;;;;;9.15;7.88;;;13.10;51.90;;;;;;5084329;28;20189;-86
2021/04/20 14:00:00;;;;;;;8.68;7.78;;;13.50;50.40;;;;;;5083917;28;20206;-87
2021/04/20 14:02:32;;;;;;;10.45;7.63;;;13.70;50.20;;;;;;5087039;28;20225;-89
2021/04/20 14:05:49;;;;;;;9.00;7.30;;;13.80;50.50;;;;;;5071966;28;20228;-86
2021/04/20 14:08:22;;;;;;;9.13;7.60;;;13.90;50.30;;;;;;5086254;28;20223;-92
2021/04/20 14:10:53;;;;;;;11.02;8.65;;;13.80;50.30;;;;;;5102952;27;20663;-89
2021/04/20 14:13:22;;;;;;;8.77;7.85;;;14.20;50.60;;;;;;5103094;28;20273;-88
2021/04/20 14:15:54;;;;;;;8.88;7.97;;;14.80;46.20;;;;;;5081121;28;20213;-88
2021/04/20 14:18:24;;;;;;;8.13;7.15;;;15.10;44.60;;;;;;5086151;28;20193;-88
2021/04/20 14:20:50;;;;;;;9.48;8.05;;;15.00;45.30;;;;;;5078447;28;20223;-87
2021/04/20 14:23:21;;;;;;;8.95;7.50;;;15.30;45.00;;;;;;5085212;28;20197;-88
2021/04/20 14:25:52;;;;;;;8.73;7.75;;;15.30;44.10;;;;;;5080966;28;20198;-91
2021/04/20 14:28:26;;;;;;;8.68;7.78;;;15.30;42.90;;;;;;5076513;28;20232;-89
2021/04/20 14:30:54;;;;;;;8.48;7.60;;;15.40;43.80;;;;;;5075577;28;20604;-87
2021/04/20 14:33:25;;;;;;;8.40;7.50;;;15.40;43.60;;;;;;5051610;28;20236;-87
2021/04/20 14:36:02;;;;;;;9.88;8.00;;;15.70;42.50;;;;;;5040812;28;20230;-88
2021/04/20 14:38:30;;;;;;;8.40;7.57;;;15.90;43.10;;;;;;5063278;28;20202;-89
2021/04/20 14:40:58;;;;;;;8.70;7.80;;;15.90;40.40;;;;;;5039749;28;20229;-87
2021/04/20 14:43:25;;;;;;;9.07;7.07;;;15.80;42.50;;;;;;5044303;28;20206;-88
2021/04/20 14:45:53;;;;;;;7.53;6.68;;;16.00;40.50;;;;;;5047884;28;20229;-88
2021/04/20 14:48:24;;;;;;;9.50;7.47;;;16.10;39.90;;;;;;5056711;28;20206;-88
2021/04/20 14:50:55;;;;;;;8.45;7.65;;;16.10;39.70;;;;;;5047460;28;20300;-90
2021/04/20 14:53:24;;;;;;;7.93;7.13;;;15.90;41.40;;;;;;5056733;28;20221;-88
2021/04/20 14:55:52;;;;;;;9.90;7.90;;;15.60;40.50;;;;;;5061594;28;25070;-88
2021/04/20 14:58:26;;;;;;;7.75;6.78;;;15.50;40.60;;;;;;5060369;28;20219;-89
2021/04/20 15:01:00;;;;;;;8.50;7.60;;;15.20;40.70;;;;;;5055458;28;20226;-88
2021/04/20 15:03:28;;;;;;;8.38;7.45;;;15.60;40.60;;;;;;5054500;28;20198;-89
2021/04/20 15:05:59;;;;;;;10.40;7.85;;;15.70;40.40;;;;;;5061644;28;20590;-89
2021/04/20 15:08:32;;;;;;;8.63;7.82;;;15.80;39.70;;;;;;5059882;28;20194;-90
2021/04/20 15:11:02;;;;;;;9.90;8.55;;;16.00;39.40;;;;;;5059988;28;20222;-89
2021/04/20 15:13:33;;;;;;;9.45;8.20;;;15.80;38.00;;;;;;5055825;28;20878;-89
2021/04/20 15:16:04;;;;;;;10.52;8.13;;;15.70;38.70;;;;;;5054468;28;20234;-91
2021/04/20 15:18:33;;;;;;;8.93;8.13;;;15.40;39.00;;;;;;5045739;28;20206;-89
2021/04/20 15:21:14;;;;;;;10.90;9.02;;;15.80;39.20;;;;;;5036561;28;20222;-91
2021/04/20 15:23:50;;;;;;;11.57;9.52;;;16.10;41.10;;;;;;5043469;28;20207;-92
2021/04/20 15:26:25;;;;;;;13.38;9.52;;;15.90;39.60;;;;;;5041998;28;20229;-91
2021/04/20 15:29:00;;;;;;;10.95;9.60;;;16.10;39.90;;;;;;5046474;28;20396;-88
2021/04/20 15:31:30;;;;;;;12.55;10.40;;;16.00;39.80;;;;;;5045347;28;20225;-90
2021/04/20 15:33:57;;;;;;;11.05;9.23;;;16.00;40.80;;;;;;5045936;28;20689;-87
2021/04/20 15:36:28;;;;;;;12.98;9.50;;;16.10;39.50;;;;;;5046671;28;20222;-90
2021/04/20 15:39:03;;;;;;;10.80;9.70;;;16.10;39.70;;;;;;5057228;28;20202;-89
2021/04/20 15:41:33;;;;;;;12.15;10.15;;;16.00;39.90;;;;;;5051421;28;20545;-89
2021/04/20 15:44:02;;;;;;;11.70;10.43;;;15.60;40.20;;;;;;5044490;28;20718;-90
2021/04/20 15:46:32;;;;;;;11.80;10.52;;;15.20;41.90;;;;;;5042089;28;20226;-88
2021/04/20 15:49:04;;;;;;;12.20;10.90;;;14.90;44.40;;;;;;5049593;28;20683;-88
2021/04/20 15:51:38;;;;;;;11.68;10.43;;;14.60;44.30;;;;;;5036951;28;20233;-88
2021/04/20 15:54:24;;;;;;;12.77;10.63;;;14.30;44.70;;;;;;5057893;28;20252;-88